< < Back
Terminal Aerodrome Forecast


Current Version              Previous Versions:   1  2  3  4  5  6  7  8  9  

Terminal Aerodrome Forecast

385
FTUS44 KMOB 310500
TAFMOB
TAF
KMOB 310533Z 3106/0106 01005KT P6SM FEW250
     FM311500 08009KT P6SM SCT250=



Latest METAR

020
SAUS80 KWBC 010400 RRK
MTRMOB
METAR KMOB 010356Z 11007KT 10SM CLR 10/07 A3020 RMK AO2 SLP225
T01000067


USA.gov is the U.S. government's official web portal to all federal, state and local government web resources and services.